Time;durP1;ratioP1;P1;durP2;ratioP2;P2;SDS_P1;SDS_P2;PMS_P1;PMS_P2;Temp;Humidity;BMP_temperature;BMP_pressure;BME280_temperature;BME280_humidity;BME280_pressure;Samples;Min_cycle;Max_cycle;Signal;HPM_P1;HPM_P2
2023/01/15 00:01:35;;;;;;;10.40;5.20;;;;;;;0.50;86.65;99249.50;105587;1253;76284;-22
2023/01/15 00:04:03;;;;;;;9.90;6.10;;;;;;;1.00;86.01;99244.55;105646;1253;75500;-22
2023/01/15 00:06:31;;;;;;;11.40;5.90;;;;;;;1.43;84.29;99244.06;105616;1257;74955;-22
2023/01/15 00:08:58;;;;;;;8.40;5.10;;;;;;;1.34;83.75;99241.01;105529;1254;61516;-22
2023/01/15 00:11:25;;;;;;;12.20;5.90;;;;;;;1.19;84.04;99241.07;105411;1262;62957;-22
2023/01/15 00:13:52;;;;;;;8.70;5.70;;;;;;;0.85;84.75;99237.41;105769;1255;75196;-22
2023/01/15 00:16:20;;;;;;;8.20;4.90;;;;;;;0.54;85.87;99237.23;105644;1254;75621;-22
2023/01/15 00:18:55;;;;;;;11.20;6.30;;;;;;;0.64;86.85;99238.58;105630;1260;75585;-22
2023/01/15 00:21:22;;;;;;;10.30;5.10;;;;;;;1.24;85.32;99234.91;105654;1254;61155;-22
2023/01/15 01:00:55;;;;;;;3.50;2.20;;;;;;;0.35;86.25;99199.64;105794;1254;71371;-22
2023/01/15 01:03:22;;;;;;;6.60;3.60;;;;;;;0.34;86.69;99194.06;105570;1254;62624;-22
2023/01/15 01:05:50;;;;;;;4.90;3.40;;;;;;;0.70;86.00;99192.19;105685;1259;62629;-22
2023/01/15 01:08:18;;;;;;;7.00;3.80;;;;;;;0.87;85.14;99193.08;105731;1259;76263;-22
2023/01/15 01:10:45;;;;;;;4.30;2.70;;;;;;;0.70;85.00;99193.73;105590;1254;76811;-22
2023/01/15 01:13:12;;;;;;;3.60;2.70;;;;;;;0.46;85.45;99194.11;105566;1254;74153;-22
2023/01/15 01:15:39;;;;;;;3.30;2.50;;;;;;;0.28;85.97;99188.11;105474;1254;62531;-22
2023/01/15 01:18:06;;;;;;;3.70;2.20;;;;;;;0.64;85.88;99189.86;105475;1254;62579;-22
2023/01/15 01:20:33;;;;;;;5.30;3.40;;;;;;;0.88;84.77;99189.25;105479;1258;75313;-22
2023/01/15 01:23:00;;;;;;;4.60;3.10;;;;;;;0.85;84.55;99195.04;105469;1259;76826;-23
2023/01/15 01:25:27;;;;;;;5.40;2.80;;;;;;;0.60;84.80;99197.70;105215;1260;75118;-22
2023/01/15 01:27:54;;;;;;;5.30;3.60;;;;;;;0.19;86.24;99197.50;105472;1259;62077;-22
2023/01/15 01:30:21;;;;;;;3.20;2.30;;;;;;;0.03;87.26;99196.55;105569;1257;62678;-22
2023/01/15 01:32:48;;;;;;;5.10;3.30;;;;;;;0.62;86.54;99194.70;105639;1259;76464;-23
2023/01/15 01:35:15;;;;;;;4.60;3.20;;;;;;;1.13;84.62;99196.15;105663;1254;75550;-22
2023/01/15 01:37:42;;;;;;;5.40;3.30;;;;;;;1.15;83.95;99203.09;105628;1257;75004;-22
2023/01/15 01:40:10;;;;;;;4.40;2.70;;;;;;;1.06;83.91;99202.42;105453;1254;62861;-22
2023/01/15 01:42:37;;;;;;;5.00;2.90;;;;;;;0.76;84.21;99202.23;105244;1254;61701;-23
2023/01/15 01:45:07;;;;;;;2.30;1.60;;;;;;;0.44;84.63;99199.66;105365;1254;74211;-23
2023/01/15 01:47:34;;;;;;;6.10;3.00;;;;;;;0.24;85.77;99196.31;105228;1260;74733;-23
2023/01/15 01:50:05;;;;;;;6.20;2.40;;;;;;;0.52;85.43;99195.45;105444;1254;74890;-23
2023/01/15 01:52:37;;;;;;;4.60;3.20;;;;;;;0.71;84.83;99194.36;105152;1254;61820;-23
2023/01/15 01:55:04;;;;;;;4.50;2.90;;;;;;;0.67;85.01;99195.53;105414;1260;63150;-23
2023/01/15 01:57:31;;;;;;;5.50;3.20;;;;;;;0.50;85.06;99191.91;105678;1254;76338;-23
2023/01/15 01:59:58;;;;;;;5.10;3.20;;;;;;;0.21;85.76;99196.90;105577;1254;76746;-23
2023/01/15 02:02:25;;;;;;;5.40;3.30;;;;;;;0.18;86.52;99191.89;105302;1254;73801;-23
2023/01/15 02:04:52;;;;;;;2.70;1.90;;;;;;;0.70;85.38;99188.45;105621;1254;61480;-23
2023/01/15 02:07:19;;;;;;;5.30;3.40;;;;;;;0.74;84.45;99189.81;105219;1260;62528;-23
2023/01/15 02:09:47;;;;;;;4.20;3.10;;;;;;;0.66;84.76;99186.72;105632;1254;76104;-23
2023/01/15 02:12:28;;;;;;;5.70;3.50;;;;;;;0.45;85.22;99187.16;105581;1254;76652;-24
2023/01/15 02:15:14;;;;;;;5.70;4.10;;;;;;;0.20;85.85;99192.67;105714;1254;74898;-23
2023/01/15 02:17:43;;;;;;;5.60;2.80;;;;;;;0.07;87.05;99196.55;105412;1259;63492;-22
2023/01/15 02:20:38;;;;;;;5.00;3.40;;;;;;;0.56;86.27;99198.20;105535;1254;61861;-22
2023/01/15 02:23:43;;;;;;;6.20;4.20;;;;;;;0.88;84.70;99193.73;105220;1254;76301;-22
2023/01/15 02:26:45;;;;;;;6.50;4.30;;;;;;;0.54;84.93;99190.05;105499;1254;76816;-22
2023/01/15 02:29:14;;;;;;;7.50;4.50;;;;;;;0.36;85.79;99191.09;105529;1258;75145;-22
2023/01/15 02:31:42;;;;;;;9.80;4.10;;;;;;;0.17;86.40;99197.73;105297;1254;62032;-22
2023/01/15 02:34:42;;;;;;;4.90;3.40;;;;;;;0.22;86.90;99193.98;105221;1262;62804;-22
2023/01/15 02:37:12;;;;;;;5.90;3.60;;;;;;;0.91;85.13;99189.85;105375;1257;76434;-23
2023/01/15 02:39:39;;;;;;;5.10;3.70;;;;;;;1.08;84.09;99189.20;105294;1254;76859;-22
2023/01/15 02:42:08;;;;;;;8.30;4.10;;;;;;;0.94;83.89;99186.63;105633;1259;75022;-22
2023/01/15 02:44:42;;;;;;;;;;;;;;;0.58;84.46;99181.89;105470;1253;61170;-22
2023/01/15 02:47:10;;;;;;;2.90;2.00;;;;;;;0.31;85.50;99182.86;105510;1254;61272;-22
2023/01/15 02:49:37;;;;;;;4.60;3.10;;;;;;;0.12;86.36;99179.64;105196;1254;76112;-22
2023/01/15 02:52:07;;;;;;;5.70;3.50;;;;;;;0.60;86.03;99175.16;105438;1254;76591;-22
2023/01/15 02:54:42;;;;;;;6.20;3.40;;;;;;;0.99;84.82;99172.92;105325;1255;75234;-22
2023/01/15 02:57:09;;;;;;;6.90;4.10;;;;;;;0.87;84.21;99164.34;105215;1262;61148;-22
2023/01/15 02:59:40;;;;;;;6.10;3.20;;;;;;;0.67;84.82;99159.66;105616;1254;62531;-22
2023/01/15 03:02:14;;;;;;;4.40;3.00;;;;;;;0.44;85.12;99156.11;105623;1260;75090;-22
2023/01/15 03:05:04;;;;;;;5.70;3.40;;;;;;;0.41;85.56;99159.45;105336;1254;75883;-22
2023/01/15 03:07:52;;;;;;;2.80;2.00;;;;;;;0.95;84.22;99156.17;105484;1259;75233;-22
2023/01/15 03:10:23;;;;;;;6.10;4.00;;;;;;;1.02;83.32;99154.54;105669;1253;61715;-22
2023/01/15 03:13:02;;;;;;;6.20;3.80;;;;;;;0.87;83.40;99150.20;105334;1254;61503;-22
2023/01/15 03:19:17;;;;;;;7.50;3.30;;;;;;;0.40;84.58;99150.11;105468;1253;77285;-22
2023/01/15 03:22:08;;;;;;;6.30;3.60;;;;;;;0.79;84.70;99145.35;105186;1256;75350;-22
2023/01/15 03:24:39;;;;;;;5.90;3.70;;;;;;;1.37;83.32;99138.23;105470;1261;62826;-22
2023/01/15 03:27:07;;;;;;;9.20;4.40;;;;;;;1.40;82.86;99136.04;105423;1253;61400;-22
2023/01/15 03:29:37;;;;;;;8.00;4.30;;;;;;;1.22;82.79;99137.31;105476;1254;76408;-22
2023/01/15 03:32:05;;;;;;;8.10;4.90;;;;;;;0.92;83.18;99134.75;105233;1254;76280;-22
2023/01/15 03:34:59;;;;;;;8.80;4.50;;;;;;;0.65;83.57;99126.26;105245;1262;75064;-22
2023/01/15 03:37:26;;;;;;;4.30;2.80;;;;;;;0.47;84.53;99124.90;105581;1255;62743;-23
2023/01/15 03:39:54;;;;;;;7.30;3.80;;;;;;;1.03;84.36;99127.98;105608;1261;62411;-23
2023/01/15 03:42:45;;;;;;;7.10;4.30;;;;;;;1.49;83.10;99126.77;105600;1261;76298;-23
2023/01/15 03:45:32;;;;;;;7.30;3.60;;;;;;;1.42;82.35;99121.60;105632;1253;76843;-22
2023/01/15 03:48:10;;;;;;;7.70;4.30;;;;;;;1.16;82.69;99115.31;105245;1257;75212;-23
2023/01/15 03:50:40;;;;;;;7.80;4.00;;;;;;;0.88;83.21;99108.92;105348;1257;62182;-23
2023/01/15 03:53:23;;;;;;;10.90;6.20;;;;;;;0.62;83.92;99107.21;105333;1254;61613;-22
2023/01/15 03:56:03;;;;;;;7.30;3.80;;;;;;;0.56;84.83;99112.77;105248;1260;76246;-23
2023/01/15 03:58:45;;;;;;;8.10;3.70;;;;;;;1.24;84.12;99114.31;105334;1254;76745;-23
2023/01/15 04:01:18;;;;;;;10.60;5.50;;;;;;;1.51;82.77;99113.02;105263;1256;75197;-23
2023/01/15 04:03:47;;;;;;;11.00;5.90;;;;;;;1.39;82.51;99111.13;105140;1262;61733;-23
2023/01/15 04:06:14;;;;;;;9.00;3.90;;;;;;;1.17;82.92;99110.33;105464;1254;61478;-22
2023/01/15 04:08:41;;;;;;;11.40;5.50;;;;;;;0.91;83.34;99102.64;105418;1259;76359;-23
2023/01/15 04:11:08;;;;;;;10.70;6.20;;;;;;;0.67;84.03;99093.53;105222;1261;76799;-22
2023/01/15 04:13:41;;;;;;;7.30;4.10;;;;;;;0.51;84.72;99091.41;105397;1259;75210;-22
2023/01/15 04:16:27;;;;;;;10.90;5.60;;;;;;;1.04;84.76;99087.80;105394;1254;61170;-22
2023/01/15 04:18:54;;;;;;;10.80;5.20;;;;;;;1.52;83.39;99086.60;105185;1253;61497;-22
2023/01/15 04:21:22;;;;;;;11.40;6.10;;;;;;;1.51;82.77;99083.23;105499;1259;76260;-24
2023/01/15 04:23:49;;;;;;;8.40;5.30;;;;;;;1.27;83.03;99079.47;105306;1254;76617;-23
2023/01/15 04:26:16;;;;;;;16.00;8.00;;;;;;;1.01;83.53;99080.20;105363;1257;74878;-22
2023/01/15 04:28:43;;;;;;;12.50;7.00;;;;;;;0.78;84.17;99079.80;105504;1253;61126;-23
2023/01/15 04:31:10;;;;;;;13.90;6.80;;;;;;;0.70;85.05;99078.23;105493;1254;62527;-22
2023/01/15 04:33:38;;;;;;;16.10;8.20;;;;;;;1.22;84.42;99075.76;105393;1259;75190;-22
2023/01/15 04:36:06;;;;;;;17.10;8.60;;;;;;;1.44;83.54;99074.80;105597;1257;76517;-22
2023/01/15 04:38:32;;;;;;;18.40;8.60;;;;;;;1.37;83.52;99078.02;105641;1259;75368;-22
2023/01/15 04:44:07;;;;;;;14.60;6.00;;;;;;;0.88;84.46;99086.37;105275;1253;61496;-22
2023/01/15 04:46:40;;;;;;;8.40;4.50;;;;;;;0.65;85.69;99087.64;105392;1259;76042;-22
2023/01/15 04:49:12;;;;;;;18.10;8.90;;;;;;;1.06;85.53;99093.53;105267;1261;77184;-22
2023/01/15 04:51:38;;;;;;;12.50;7.30;;;;;;;1.33;84.39;99089.80;105133;1254;74584;-22
2023/01/15 04:54:07;;;;;;;9.50;5.80;;;;;;;1.20;84.33;99092.60;105353;1255;62909;-21
2023/01/15 04:56:42;;;;;;;20.70;9.50;;;;;;;1.03;84.63;99090.05;105346;1254;61161;-21
2023/01/15 04:59:09;;;;;;;19.80;9.20;;;;;;;0.82;85.17;99092.07;105416;1254;76451;-22
2023/01/15 05:01:36;;;;;;;7.60;4.80;;;;;;;0.90;85.70;99093.64;105304;1254;75949;-22
2023/01/15 05:04:03;;;;;;;16.70;8.80;;;;;;;1.34;84.68;99084.96;105501;1259;74970;-22
2023/01/15 05:06:31;;;;;;;13.80;7.00;;;;;;;1.48;83.80;99081.98;105460;1254;62844;-21
2023/01/15 05:09:01;;;;;;;12.80;7.00;;;;;;;1.32;83.85;99075.13;105359;1254;61423;-21
2023/01/15 05:11:28;;;;;;;17.90;8.30;;;;;;;1.05;84.39;99073.70;105213;1254;76544;-22
2023/01/15 05:13:55;;;;;;;15.70;8.00;;;;;;;0.87;85.20;99079.58;105385;1253;77075;-22
2023/01/15 05:16:24;;;;;;;16.20;8.60;;;;;;;1.19;85.19;99076.23;105360;1257;75147;-21
2023/01/15 05:18:52;;;;;;;12.20;7.40;;;;;;;1.54;84.05;99073.16;105390;1254;61900;-22
2023/01/15 05:21:33;;;;;;;17.50;9.40;;;;;;;1.50;83.80;99076.59;105404;1254;62107;-22
2023/01/15 05:24:01;;;;;;;14.60;7.30;;;;;;;1.26;84.35;99075.55;105445;1254;76094;-22
2023/01/15 05:26:32;;;;;;;11.70;5.50;;;;;;;1.01;85.13;99076.96;105468;1254;77256;-22
2023/01/15 05:28:59;;;;;;;8.40;4.20;;;;;;;0.96;85.90;99076.98;105361;1254;74919;-22
2023/01/15 05:31:26;;;;;;;7.90;4.30;;;;;;;1.44;85.05;99076.70;105486;1253;62026;-22
2023/01/15 05:33:53;;;;;;;15.50;7.70;;;;;;;1.64;84.20;99071.21;105337;1254;61749;-21
2023/01/15 05:36:25;;;;;;;11.60;5.80;;;;;;;1.49;84.04;99071.17;105341;1254;76536;-21
2023/01/15 05:38:53;;;;;;;9.00;6.00;;;;;;;1.21;84.96;99069.43;105190;1254;76800;-22
2023/01/15 05:44:08;;;;;;;6.30;3.80;;;;;;;1.25;85.95;99072.72;105362;1259;61240;-21
2023/01/15 05:46:36;;;;;;;7.90;5.40;;;;;;;1.48;85.07;99064.89;105558;1253;62768;-22
2023/01/15 05:49:09;;;;;;;9.30;4.80;;;;;;;1.40;84.96;99066.92;105389;1254;76250;-22
2023/01/15 05:51:36;;;;;;;6.60;4.40;;;;;;;1.20;85.23;99063.02;105473;1259;74837;-22
2023/01/15 05:54:04;;;;;;;4.00;2.20;;;;;;;1.03;85.90;99059.93;105389;1254;74141;-22
2023/01/15 05:56:34;;;;;;;6.90;4.10;;;;;;;1.45;85.68;99055.96;105460;1253;61164;-22
2023/01/15 05:59:01;;;;;;;8.70;4.20;;;;;;;1.64;84.48;99054.61;105565;1253;62251;-21
2023/01/15 06:01:28;;;;;;;8.00;3.80;;;;;;;1.52;84.47;99051.52;105530;1254;75995;-22
2023/01/15 06:04:00;;;;;;;6.70;3.20;;;;;;;1.29;84.92;99054.05;105389;1259;76759;-22
2023/01/15 06:06:27;;;;;;;4.90;2.90;;;;;;;1.12;85.63;99058.04;105274;1261;75178;-22
2023/01/15 06:08:54;;;;;;;6.20;3.00;;;;;;;1.54;85.30;99058.13;105579;1259;61163;-21
2023/01/15 06:11:21;;;;;;;7.50;3.90;;;;;;;1.77;84.17;99057.44;105463;1254;61800;-22
2023/01/15 06:13:48;;;;;;;6.70;3.50;;;;;;;1.73;83.94;99055.92;105505;1254;76004;-22
2023/01/15 06:16:15;;;;;;;7.30;4.10;;;;;;;1.50;84.33;99053.34;105518;1254;76729;-22
2023/01/15 06:18:43;;;;;;;6.20;3.80;;;;;;;1.19;85.20;99051.27;105789;1254;74973;-22
2023/01/15 06:21:11;;;;;;;6.70;2.90;;;;;;;1.29;85.80;99052.36;105537;1254;61103;-22
2023/01/15 06:23:38;;;;;;;5.40;3.80;;;;;;;1.67;84.79;99045.38;105391;1254;61465;-22
2023/01/15 06:26:07;;;;;;;5.10;2.90;;;;;;;1.68;84.22;99042.64;105584;1259;75008;-21
2023/01/15 06:28:34;;;;;;;6.30;3.60;;;;;;;1.45;84.48;99041.23;105612;1254;76934;-22
2023/01/15 06:31:06;;;;;;;5.40;3.90;;;;;;;1.20;85.13;99042.14;105380;1257;75117;-22
2023/01/15 06:33:33;;;;;;;9.20;5.00;;;;;;;1.10;85.96;99039.48;105188;1262;64390;-22
2023/01/15 06:36:05;;;;;;;6.70;3.70;;;;;;;1.47;85.40;99043.70;105665;1254;61063;-22
2023/01/15 06:38:32;;;;;;;4.80;3.20;;;;;;;1.53;84.84;99045.49;105299;1254;76494;-22
2023/01/15 06:41:00;;;;;;;9.00;4.30;;;;;;;1.36;84.97;99041.80;105484;1254;76817;-22
2023/01/15 06:48:59;;;;;;;6.90;2.80;;;;;;;1.56;84.98;99029.31;105316;1255;62545;-22
2023/01/15 06:51:25;;;;;;;5.60;3.80;;;;;;;1.58;84.66;99027.28;105477;1254;76173;-22
2023/01/15 06:53:54;;;;;;;5.50;3.20;;;;;;;1.31;84.84;99026.07;105545;1254;76946;-22
2023/01/15 06:56:21;;;;;;;4.90;3.70;;;;;;;1.03;85.63;99024.92;105400;1257;75240;-21
2023/01/15 06:58:48;;;;;;;9.60;4.50;;;;;;;1.00;86.18;99019.38;105674;1259;61931;-22
2023/01/15 07:01:15;;;;;;;4.80;3.20;;;;;;;1.34;85.28;99016.38;105579;1256;62489;-21
2023/01/15 07:03:43;;;;;;;9.20;4.50;;;;;;;1.32;84.59;99017.83;105272;1253;76044;-22
2023/01/15 07:06:11;;;;;;;4.50;3.10;;;;;;;1.15;85.09;99017.73;105473;1253;76523;-22
2023/01/15 07:08:38;;;;;;;3.30;2.30;;;;;;;0.90;85.83;99024.09;105338;1254;74110;-22
2023/01/15 07:11:08;;;;;;;6.70;3.60;;;;;;;1.13;85.99;99019.00;105505;1254;61974;-22
2023/01/15 07:13:36;;;;;;;6.10;4.30;;;;;;;1.34;85.01;99015.87;105316;1260;61151;-22
2023/01/15 07:16:03;;;;;;;8.50;4.00;;;;;;;1.27;84.77;99008.45;105338;1253;75248;-22
2023/01/15 07:18:32;;;;;;;5.60;3.70;;;;;;;1.06;85.30;99015.04;105367;1254;76815;-22
2023/01/15 07:20:59;;;;;;;10.90;5.20;;;;;;;0.83;86.16;99023.50;105455;1260;74239;-22
2023/01/15 07:23:26;;;;;;;8.30;4.00;;;;;;;1.14;86.02;99016.05;105501;1257;61161;-22
2023/01/15 07:25:53;;;;;;;6.30;4.40;;;;;;;1.39;84.95;99015.82;105500;1253;61748;-22
2023/01/15 07:28:21;;;;;;;6.50;4.50;;;;;;;1.29;84.66;99019.85;105355;1254;76585;-22
2023/01/15 07:30:48;;;;;;;6.10;3.30;;;;;;;1.07;85.15;99023.01;105200;1261;75653;-22
2023/01/15 07:33:15;;;;;;;8.40;4.10;;;;;;;0.89;85.78;99024.45;105376;1256;75291;-22
2023/01/15 07:35:42;;;;;;;6.70;4.40;;;;;;;1.08;86.08;99013.23;105255;1254;61906;-22
2023/01/15 07:38:09;;;;;;;7.10;4.40;;;;;;;1.23;85.30;99007.14;105614;1254;61170;-22
2023/01/15 07:40:37;;;;;;;6.00;4.50;;;;;;;1.05;85.77;99006.02;105510;1259;75683;-22
2023/01/15 07:51:21;;;;;;;5.70;3.70;;;;;;;1.32;85.12;99005.21;105574;1254;61640;-21
2023/01/15 07:53:48;;;;;;;5.90;3.20;;;;;;;1.17;85.37;99004.66;105633;1253;76549;-22
2023/01/15 07:56:15;;;;;;;5.50;2.90;;;;;;;0.91;86.01;98999.94;105809;1260;76491;-22
2023/01/15 07:58:47;;;;;;;10.50;6.20;;;;;;;1.10;86.41;99000.16;105490;1259;75224;-22
2023/01/15 08:01:15;;;;;;;6.20;4.30;;;;;;;1.29;85.34;98994.20;105329;1260;61677;-22
2023/01/15 08:03:42;;;;;;;7.40;5.20;;;;;;;1.20;85.32;98997.18;105362;1259;61777;-22
2023/01/15 08:06:09;;;;;;;8.60;5.30;;;;;;;0.86;86.12;98990.74;105221;1262;76368;-22
2023/01/15 08:08:36;;;;;;;6.40;3.50;;;;;;;0.83;86.97;98982.84;105459;1254;75680;-22
2023/01/15 08:16:35;;;;;;;7.20;4.00;;;;;;;0.94;86.28;98988.52;105164;1253;61230;-22
2023/01/15 08:19:03;;;;;;;6.40;4.00;;;;;;;1.03;86.54;98980.07;105522;1254;76058;-22
2023/01/15 08:21:30;;;;;;;7.50;4.30;;;;;;;1.46;85.27;98969.31;105574;1254;75730;-22
2023/01/15 08:23:57;;;;;;;6.80;4.50;;;;;;;1.51;84.63;98964.15;105386;1256;75070;-22
2023/01/15 08:26:24;;;;;;;7.50;4.70;;;;;;;1.44;84.73;98972.69;105558;1259;61259;-22
2023/01/15 08:28:51;;;;;;;9.00;5.00;;;;;;;1.17;85.31;98977.44;105485;1255;61792;-22
2023/01/15 08:31:17;;;;;;;7.60;4.20;;;;;;;1.25;85.86;98973.84;105563;1254;74292;-22
2023/01/15 08:33:45;;;;;;;5.40;4.10;;;;;;;1.58;84.76;98970.48;105477;1254;75717;-22
2023/01/15 08:36:12;;;;;;;12.10;7.00;;;;;;;1.66;84.32;98985.06;105563;1254;74134;-22
2023/01/15 08:38:39;;;;;;;14.20;6.90;;;;;;;1.43;84.37;98991.02;105370;1255;61139;-22
2023/01/15 08:41:06;;;;;;;12.80;8.30;;;;;;;0.97;85.37;98992.16;105394;1262;62855;-22
2023/01/15 08:43:33;;;;;;;8.90;4.90;;;;;;;0.99;85.98;98978.89;105515;1254;76019;-22
2023/01/15 08:46:01;;;;;;;8.30;5.10;;;;;;;1.23;85.13;98976.84;105328;1254;75620;-22
2023/01/15 08:48:29;;;;;;;8.60;4.60;;;;;;;1.15;85.00;98975.98;105239;1255;74182;-22
2023/01/15 08:50:56;;;;;;;16.10;8.20;;;;;;;1.05;85.35;98963.95;105324;1260;61186;-22
2023/01/15 08:53:24;;;;;;;8.60;5.10;;;;;;;1.01;86.18;98962.41;105329;1259;62787;-22
2023/01/15 08:55:51;;;;;;;9.90;4.60;;;;;;;1.31;85.42;98960.92;105419;1259;76453;-22
2023/01/15 08:58:18;;;;;;;8.10;4.90;;;;;;;1.44;84.77;98961.89;105371;1254;76777;-22
2023/01/15 09:00:45;;;;;;;7.40;5.10;;;;;;;1.28;85.04;98959.67;105564;1254;74520;-22
2023/01/15 09:03:12;;;;;;;13.80;7.10;;;;;;;1.19;85.49;98952.72;105326;1262;63377;-22
2023/01/15 09:05:39;;;;;;;13.50;7.90;;;;;;;1.45;84.75;98944.39;105609;1254;62575;-22
2023/01/15 09:08:07;;;;;;;9.70;5.90;;;;;;;1.46;84.10;98937.50;105680;1254;76339;-22
2023/01/15 09:10:34;;;;;;;11.70;5.30;;;;;;;1.32;84.04;98942.27;105618;1254;76877;-22
2023/01/15 09:13:01;;;;;;;5.70;3.80;;;;;;;0.97;85.22;98933.88;105661;1256;75089;-24
2023/01/15 09:15:28;;;;;;;8.70;4.20;;;;;;;1.05;85.70;98927.36;105550;1254;61160;-22
2023/01/15 09:17:56;;;;;;;11.10;7.30;;;;;;;1.44;84.49;98918.26;105509;1260;62493;-22
2023/01/15 09:20:23;;;;;;;8.60;4.90;;;;;;;1.42;83.68;98905.16;105341;1254;76370;-22
2023/01/15 09:22:50;;;;;;;8.10;5.20;;;;;;;1.22;84.28;98906.11;105377;1254;76750;-22
2023/01/15 09:25:18;;;;;;;14.90;8.70;;;;;;;1.01;85.05;98907.36;105310;1259;75204;-22
2023/01/15 09:27:47;;;;;;;11.40;6.80;;;;;;;1.20;85.16;98897.45;105623;1254;61658;-23
2023/01/15 09:30:17;;;;;;;16.00;7.00;;;;;;;1.49;84.13;98888.45;105434;1255;61695;-22
2023/01/15 09:32:44;;;;;;;17.70;8.40;;;;;;;1.42;83.83;98876.77;105516;1259;76165;-22
2023/01/15 09:35:11;;;;;;;10.70;6.80;;;;;;;1.17;84.60;98876.19;105601;1259;76194;-22
2023/01/15 09:37:38;;;;;;;16.20;6.40;;;;;;;1.11;85.33;98879.23;105448;1259;74204;-22
2023/01/15 09:40:08;;;;;;;11.40;6.90;;;;;;;1.45;84.64;98889.48;105409;1257;62892;-22
2023/01/15 09:42:51;;;;;;;12.40;7.30;;;;;;;1.38;83.97;98882.77;105588;1254;62522;-23
2023/01/15 09:45:21;;;;;;;10.60;6.10;;;;;;;1.13;84.52;98886.14;105273;1261;75225;-22
2023/01/15 09:48:04;;;;;;;13.10;6.90;;;;;;;1.01;85.25;98895.89;105377;1254;76675;-22
2023/01/15 09:50:48;;;;;;;11.40;6.30;;;;;;;1.21;85.07;98890.05;105606;1259;74892;-23
2023/01/15 09:53:16;;;;;;;9.10;5.70;;;;;;;1.53;83.64;98903.45;105289;1254;62835;-23
2023/01/15 09:55:47;;;;;;;11.00;7.20;;;;;;;1.39;83.50;98901.53;105618;1254;61938;-23
2023/01/15 09:58:20;;;;;;;8.30;4.70;;;;;;;1.16;84.16;98903.77;105631;1254;75596;-23
2023/01/15 10:00:49;;;;;;;7.10;4.60;;;;;;;1.25;84.62;98902.86;105519;1254;75832;-23
2023/01/15 10:03:32;;;;;;;8.20;5.50;;;;;;;1.71;83.27;98898.73;105513;1254;75458;-23
2023/01/15 10:06:15;;;;;;;12.40;7.90;;;;;;;1.72;82.53;98897.99;105313;1260;61792;-23
2023/01/15 10:08:49;;;;;;;7.60;5.20;;;;;;;1.46;82.76;98884.27;105160;1254;61777;-23
2023/01/15 10:11:16;;;;;;;8.80;5.40;;;;;;;1.18;83.62;98876.50;105371;1259;75259;-23
2023/01/15 10:13:51;;;;;;;8.10;4.70;;;;;;;1.44;83.85;98868.82;105383;1262;75803;-23
2023/01/15 10:16:21;;;;;;;8.30;5.30;;;;;;;1.84;82.49;98876.52;105487;1262;74914;-23
2023/01/15 10:18:48;;;;;;;7.40;5.40;;;;;;;1.75;81.68;98880.21;105252;1262;61199;-23
2023/01/15 10:21:41;;;;;;;9.60;5.40;;;;;;;1.37;82.46;98872.04;105473;1269;62675;-24
2023/01/15 10:24:36;;;;;;;7.50;4.80;;;;;;;1.20;83.39;98887.38;105574;1259;75382;-24
2023/01/15 10:27:19;;;;;;;5.70;4.30;;;;;;;1.47;83.36;98891.09;105640;1258;75426;-24
2023/01/15 10:29:48;;;;;;;9.20;6.30;;;;;;;1.60;82.02;98888.80;105643;1260;75373;-24
2023/01/15 10:32:40;;;;;;;8.80;6.10;;;;;;;1.23;82.73;98882.77;105493;1262;61627;-24
2023/01/15 10:35:38;;;;;;;8.30;5.40;;;;;;;1.12;83.54;98865.48;105515;1255;62245;-24
2023/01/15 10:38:32;;;;;;;7.10;4.20;;;;;;;1.22;83.86;98858.02;105523;1255;75124;-24
2023/01/15 10:41:05;;;;;;;8.80;5.80;;;;;;;1.61;82.58;98854.35;105550;1259;76834;-24
2023/01/15 10:43:41;;;;;;;12.70;6.50;;;;;;;1.53;82.20;98851.82;105404;1257;74902;-24
2023/01/15 10:46:12;;;;;;;8.20;6.10;;;;;;;1.26;82.80;98858.20;105281;1259;61779;-24
2023/01/15 10:48:45;;;;;;;8.60;5.60;;;;;;;1.15;83.37;98853.73;105277;1253;61771;-24
2023/01/15 10:51:19;;;;;;;7.20;4.20;;;;;;;1.41;82.90;98844.81;105552;1260;74978;-24
2023/01/15 10:53:49;;;;;;;;;;;;;;;1.46;82.27;98831.76;105254;1262;76730;-24
2023/01/15 10:56:25;;;;;;;7.90;4.60;;;;;;;1.33;82.44;98823.62;105320;1259;75363;-24
2023/01/15 10:59:21;;;;;;;9.80;6.00;;;;;;;1.17;83.26;98824.05;105229;1254;61794;-24
2023/01/15 11:01:52;;;;;;;7.80;5.80;;;;;;;1.49;82.94;98824.95;105504;1262;62703;-24
2023/01/15 11:04:20;;;;;;;8.20;5.50;;;;;;;1.59;82.05;98824.96;105708;1259;76035;-23
2023/01/15 11:06:47;;;;;;;9.10;5.40;;;;;;;1.59;81.81;98826.52;105668;1260;76891;-24
2023/01/15 11:09:21;;;;;;;8.60;5.60;;;;;;;1.38;82.33;98823.09;105606;1261;75039;-24
2023/01/15 11:20:41;;;;;;;9.40;6.90;;;;;;;1.45;82.13;98794.88;105538;1254;77148;-24
2023/01/15 11:23:10;;;;;;;9.20;5.50;;;;;;;1.19;82.72;98787.20;105543;1260;75301;-24
2023/01/15 11:25:43;;;;;;;8.30;5.40;;;;;;;1.30;83.30;98782.74;105625;1257;61800;-24
2023/01/15 11:28:14;;;;;;;5.90;4.50;;;;;;;1.60;82.30;98785.40;105713;1260;62607;-24
2023/01/15 11:30:41;;;;;;;11.30;6.80;;;;;;;1.56;81.99;98778.92;105683;1259;76063;-24
2023/01/15 11:33:26;;;;;;;15.00;8.30;;;;;;;1.32;82.34;98769.30;105589;1260;76748;-24
2023/01/15 11:35:57;;;;;;;8.70;5.00;;;;;;;1.10;83.33;98763.18;105684;1254;75421;-24
2023/01/15 11:38:25;;;;;;;13.40;7.60;;;;;;;1.44;82.80;98765.48;105632;1260;61211;-24
2023/01/15 11:40:55;;;;;;;8.80;5.80;;;;;;;1.46;81.99;98772.41;105512;1262;61549;-24
2023/01/15 11:52:21;;;;;;;9.10;6.60;;;;;;;1.50;81.52;98753.91;104363;1259;1500843;-24
2023/01/15 11:54:50;;;;;;;9.70;6.50;;;;;;;1.25;82.20;98757.66;105268;1263;62565;-24
2023/01/15 11:57:29;;;;;;;12.00;6.60;;;;;;;0.98;82.76;98751.23;105305;1254;76283;-24
2023/01/15 11:59:56;;;;;;;9.20;6.30;;;;;;;1.12;83.39;98755.73;105293;1259;75757;-24
2023/01/15 12:02:30;;;;;;;7.10;4.60;;;;;;;1.40;82.26;98754.21;105345;1254;72953;-24
2023/01/15 12:04:58;;;;;;;12.50;8.10;;;;;;;1.38;81.93;98754.81;105246;1254;61836;-24
2023/01/15 12:07:25;;;;;;;8.50;6.00;;;;;;;1.18;82.42;98754.40;105467;1260;63332;-24
2023/01/15 12:13:14;;;;;;;6.30;4.40;;;;;;;1.35;82.70;98753.24;105586;1254;76395;-25
2023/01/15 12:15:41;;;;;;;12.40;7.90;;;;;;;1.48;81.75;98749.38;105292;1254;73920;-24
2023/01/15 12:18:25;;;;;;;15.00;9.70;;;;;;;1.38;81.71;98744.91;105323;1257;61915;-24
2023/01/15 12:21:03;;;;;;;8.40;5.10;;;;;;;0.98;82.98;98738.93;105421;1260;61160;-24
2023/01/15 12:24:08;;;;;;;8.70;5.90;;;;;;;0.97;83.56;98735.37;105562;1260;75617;-24
2023/01/15 12:26:38;;;;;;;;;;;;;;;1.38;82.33;98730.55;105716;1258;75563;-24
2023/01/15 12:29:17;;;;;;;13.70;7.90;;;;;;;1.25;81.84;98732.54;105703;1260;75290;-24
2023/01/15 12:32:03;;;;;;;11.80;7.00;;;;;;;0.96;82.89;98732.85;105507;1255;62016;-24
2023/01/15 12:34:53;;;;;;;10.60;6.10;;;;;;;0.82;83.51;98733.00;105561;1259;62949;-24
2023/01/15 12:37:28;;;;;;;9.40;5.90;;;;;;;1.27;82.76;98729.19;105475;1260;74407;-25
2023/01/15 12:40:14;;;;;;;10.50;5.80;;;;;;;1.36;81.85;98720.20;105227;1260;76444;-24
2023/01/15 12:45:56;;;;;;;12.50;6.00;;;;;;;0.88;82.89;98709.30;105285;1260;61726;-24
2023/01/15 12:48:50;;;;;;;8.90;6.30;;;;;;;1.07;83.31;98704.34;105343;1258;61791;-24
2023/01/15 12:51:19;;;;;;;;;;;;;;;1.33;82.04;98700.16;105255;1262;75228;-25
2023/01/15 12:53:52;;;;;;;11.50;6.60;;;;;;;1.19;81.90;98698.77;105487;1254;76938;-24
2023/01/15 12:56:44;;;;;;;8.90;5.70;;;;;;;0.99;82.50;98698.70;105299;1260;74940;-24
2023/01/15 12:59:41;;;;;;;10.80;6.30;;;;;;;0.86;83.26;98695.74;105659;1260;62116;-24
2023/01/15 13:02:11;;;;;;;9.40;4.70;;;;;;;1.17;82.59;98697.17;105653;1254;61806;-24
2023/01/15 13:04:51;;;;;;;6.20;4.30;;;;;;;1.07;82.54;98689.28;105404;1260;76164;-24
2023/01/15 13:07:42;;;;;;;10.90;7.10;;;;;;;0.94;82.77;98688.16;105535;1259;76844;-24
2023/01/15 13:10:19;;;;;;;7.80;5.00;;;;;;;0.79;83.58;98693.52;105403;1259;75177;-24
2023/01/15 13:12:46;;;;;;;10.00;5.50;;;;;;;1.03;83.37;98691.16;105486;1259;61182;-24
2023/01/15 13:15:16;;;;;;;18.50;5.40;;;;;;;1.26;82.50;98689.07;105348;1259;61054;-24
2023/01/15 13:20:31;;;;;;;8.00;4.80;;;;;;;1.05;82.58;98690.06;102766;1295;601182;-23
2023/01/15 13:23:20;;;;;;;13.30;8.40;;;;;;;0.97;83.48;98690.80;104825;1267;63459;-24
2023/01/15 13:26:01;;;;;;;9.20;5.20;;;;;;;1.29;82.32;98687.70;104895;1264;62737;-24